createdAt,value
2022-10-28T00:01:13.344Z,3.00
2022-10-28T00:03:42.700Z,2.77
2022-10-28T00:06:12.387Z,2.60
2022-10-28T00:08:39.401Z,3.20
2022-10-28T00:11:11.546Z,2.50
2022-10-28T00:13:39.049Z,3.03
2022-10-28T00:16:08.856Z,2.87
2022-10-28T00:18:35.646Z,2.20
2022-10-28T00:21:08.597Z,2.80
2022-10-28T00:23:35.419Z,2.07
2022-10-28T00:26:14.700Z,1.93
2022-10-28T00:28:49.140Z,3.10
2022-10-28T00:31:18.010Z,2.40
2022-10-28T00:33:45.326Z,1.70
2022-10-28T00:36:15.174Z,2.40
2022-10-28T00:38:42.940Z,2.40
2022-10-28T00:41:10.771Z,2.90
2022-10-28T00:43:43.366Z,2.80
2022-10-28T00:46:36.493Z,3.40
2022-10-28T00:49:16.481Z,2.40
2022-10-28T00:51:44.641Z,2.97
2022-10-28T00:54:12.537Z,3.47
2022-10-28T00:56:43.147Z,4.37
2022-10-28T00:59:16.535Z,3.83
2022-10-28T01:01:43.452Z,2.67
2022-10-28T01:04:11.284Z,3.23
2022-10-28T01:06:38.196Z,4.47
2022-10-28T01:09:04.896Z,3.40
2022-10-28T01:11:44.869Z,3.23
2022-10-28T01:14:11.476Z,3.53
2022-10-28T01:17:03.936Z,4.00
2022-10-28T01:20:12.504Z,3.53
2022-10-28T01:22:58.466Z,3.30
2022-10-28T01:25:43.455Z,3.87
2022-10-28T01:28:28.676Z,3.03
2022-10-28T01:30:55.374Z,2.33
2022-10-28T01:33:26.850Z,3.23
2022-10-28T01:35:57.765Z,2.33
2022-10-28T01:38:43.226Z,3.17
2022-10-28T01:41:11.623Z,3.80
2022-10-28T01:43:59.846Z,3.27
2022-10-28T01:46:31.459Z,3.37
2022-10-28T01:49:01.475Z,3.37
2022-10-28T01:51:36.056Z,3.00
2022-10-28T01:54:05.704Z,5.50
2022-10-28T01:56:37.500Z,2.80
2022-10-28T01:59:06.877Z,2.80
2022-10-28T02:01:34.467Z,4.40
2022-10-28T02:04:01.487Z,3.20
2022-10-28T02:06:29.914Z,3.97
2022-10-28T02:09:24.620Z,4.93
2022-10-28T02:12:14.854Z,4.13
2022-10-28T02:15:14.429Z,3.17
2022-10-28T02:17:41.027Z,2.83
2022-10-28T02:20:34.296Z,2.90
2022-10-28T02:23:12.228Z,2.77
2022-10-28T02:25:45.567Z,3.60
2022-10-28T02:28:55.189Z,4.10
2022-10-28T02:31:29.924Z,3.10
2022-10-28T02:34:00.784Z,4.77
2022-10-28T02:36:28.821Z,2.30
2022-10-28T02:38:57.992Z,4.53
2022-10-28T02:41:29.365Z,3.37
2022-10-28T02:44:00.806Z,3.90
2022-10-28T02:46:30.017Z,5.23
2022-10-28T02:49:02.817Z,3.37
2022-10-28T02:51:36.995Z,3.10
2022-10-28T02:54:15.492Z,2.70
2022-10-28T02:57:12.997Z,3.50
2022-10-28T02:59:40.247Z,4.43
2022-10-28T03:02:07.040Z,3.63
2022-10-28T03:04:33.809Z,2.73
2022-10-28T03:07:00.536Z,2.37
2022-10-28T03:09:27.246Z,3.77
2022-10-28T03:11:53.924Z,3.40
2022-10-28T03:14:20.696Z,3.53
2022-10-28T03:16:47.458Z,3.77
2022-10-28T03:19:14.179Z,4.00
2022-10-28T03:21:40.966Z,3.10
2022-10-28T03:24:07.658Z,3.30
2022-10-28T03:26:34.398Z,2.30
2022-10-28T03:29:01.102Z,2.07
2022-10-28T03:31:27.877Z,3.70
2022-10-28T03:33:54.627Z,2.53
2022-10-28T03:36:21.346Z,1.93
2022-10-28T03:38:48.246Z,2.77
2022-10-28T03:41:15.016Z,2.70
2022-10-28T03:43:41.796Z,2.10
2022-10-28T03:46:08.526Z,3.13
2022-10-28T03:48:35.264Z,3.30
2022-10-28T03:51:01.957Z,3.47
2022-10-28T03:53:31.193Z,2.63
2022-10-28T03:55:59.846Z,2.90
2022-10-28T03:58:26.810Z,3.00
2022-10-28T04:00:54.147Z,3.13
2022-10-28T04:03:22.275Z,2.60
2022-10-28T04:05:49.146Z,2.53
2022-10-28T04:08:17.225Z,2.80
2022-10-28T04:10:47.277Z,2.97
2022-10-28T04:13:15.136Z,2.93
2022-10-28T04:15:41.927Z,4.60
2022-10-28T04:18:08.707Z,3.37
2022-10-28T04:20:35.331Z,2.67
2022-10-28T04:23:02.381Z,10.00
2022-10-28T04:25:29.257Z,5.43
2022-10-28T04:27:56.197Z,5.70
2022-10-28T04:30:23.214Z,5.53
2022-10-28T04:32:49.770Z,4.57
2022-10-28T04:35:36.528Z,3.10
2022-10-28T04:38:03.112Z,4.73
2022-10-28T04:40:29.694Z,5.53
2022-10-28T04:42:56.430Z,4.30
2022-10-28T04:45:23.270Z,6.23
2022-10-28T04:47:49.917Z,5.90
2022-10-28T04:50:16.598Z,4.83
2022-10-28T04:52:43.156Z,5.73
2022-10-28T04:55:09.973Z,4.07
2022-10-28T04:57:36.579Z,3.70
2022-10-28T05:00:04.579Z,3.10
2022-10-28T05:02:31.348Z,3.53
2022-10-28T05:05:02.355Z,3.63
2022-10-28T05:07:29.379Z,2.70
2022-10-28T05:09:55.934Z,3.00
2022-10-28T05:12:22.712Z,2.07
2022-10-28T05:14:51.221Z,1.80
2022-10-28T05:17:19.792Z,2.00
2022-10-28T05:19:46.477Z,2.27
2022-10-28T05:22:13.143Z,3.70
2022-10-28T05:24:39.722Z,3.63
2022-10-28T05:27:06.633Z,4.20
2022-10-28T05:29:33.560Z,7.60
2022-10-28T05:32:00.691Z,17.47
2022-10-28T05:34:27.445Z,12.83
2022-10-28T05:36:54.164Z,13.73
2022-10-28T05:39:20.905Z,4.50
2022-10-28T05:41:47.573Z,4.27
2022-10-28T05:44:14.285Z,5.70
2022-10-28T05:46:41.013Z,4.60
2022-10-28T05:49:07.784Z,5.87
2022-10-28T05:51:34.552Z,3.30
2022-10-28T05:54:01.327Z,4.03
2022-10-28T05:56:28.082Z,9.30
2022-10-28T05:58:54.784Z,10.23
2022-10-28T06:01:21.525Z,6.43
2022-10-28T06:03:48.314Z,13.40
2022-10-28T06:06:15.145Z,3.90
2022-10-28T06:08:41.924Z,6.03
2022-10-28T06:11:07.187Z,4.63
2022-10-28T06:13:33.867Z,6.67
2022-10-28T06:16:00.682Z,8.67
2022-10-28T06:18:27.394Z,7.07
2022-10-28T06:20:56.360Z,11.47
2022-10-28T06:23:24.369Z,3.27
2022-10-28T06:28:27.892Z,3.97
2022-10-28T06:31:01.264Z,6.80
2022-10-28T06:33:28.113Z,13.30
2022-10-28T06:35:59.064Z,7.10
2022-10-28T06:38:27.052Z,4.00
2022-10-28T06:40:56.784Z,3.40
2022-10-28T06:43:23.811Z,4.20
2022-10-28T06:45:55.069Z,3.20
2022-10-28T06:48:23.925Z,2.80
2022-10-28T06:50:50.650Z,6.03
2022-10-28T06:53:17.408Z,6.87
2022-10-28T06:55:48.900Z,3.67
2022-10-28T06:58:16.050Z,9.37
2022-10-28T07:00:42.811Z,3.20
2022-10-28T07:03:10.154Z,4.23
2022-10-28T07:05:36.997Z,7.13
2022-10-28T07:08:04.386Z,4.50
2022-10-28T07:10:31.272Z,4.87
2022-10-28T07:12:58.085Z,5.63
2022-10-28T07:15:24.996Z,6.60
2022-10-28T07:17:56.138Z,5.07
2022-10-28T07:20:24.009Z,10.27
2022-10-28T07:23:01.102Z,6.97
2022-10-28T07:25:29.043Z,4.80
2022-10-28T07:27:57.985Z,4.17
2022-10-28T07:30:24.797Z,4.60
2022-10-28T07:32:52.053Z,5.50
2022-10-28T07:35:19.028Z,6.40
2022-10-28T07:37:45.807Z,4.80
2022-10-28T07:40:12.791Z,2.90
2022-10-28T07:42:39.499Z,3.97
2022-10-28T07:45:06.719Z,4.40
2022-10-28T07:47:33.464Z,6.43
2022-10-28T07:50:00.257Z,6.00
2022-10-28T07:52:26.933Z,5.83
2022-10-28T07:54:53.647Z,4.27
2022-10-28T07:57:20.466Z,7.37
2022-10-28T07:59:47.199Z,7.80
2022-10-28T08:02:18.795Z,6.33
2022-10-28T08:04:45.717Z,6.23
2022-10-28T08:07:13.150Z,5.13
2022-10-28T08:09:40.653Z,3.57
2022-10-28T08:12:08.479Z,3.50
2022-10-28T08:14:35.537Z,3.93
2022-10-28T08:17:02.218Z,5.33
2022-10-28T08:19:29.002Z,3.13
2022-10-28T08:21:55.681Z,3.37
2022-10-28T08:24:22.679Z,6.03
2022-10-28T08:26:49.454Z,4.20
2022-10-28T08:29:16.323Z,2.70
2022-10-28T08:31:43.091Z,3.60
2022-10-28T08:34:09.912Z,3.70
2022-10-28T08:36:36.653Z,4.50
2022-10-28T08:39:03.570Z,3.63
2022-10-28T08:41:45.692Z,3.90
2022-10-28T08:44:31.069Z,4.93
2022-10-28T08:47:17.332Z,3.87
2022-10-28T08:49:47.140Z,4.77
2022-10-28T08:52:41.475Z,4.13
2022-10-28T08:55:15.854Z,4.20
2022-10-28T08:58:11.123Z,5.60
2022-10-28T09:00:38.331Z,4.70
2022-10-28T09:03:22.567Z,5.40
2022-10-28T09:05:54.585Z,4.87
2022-10-28T09:08:23.928Z,6.27
2022-10-28T09:10:56.724Z,5.37
2022-10-28T09:13:29.556Z,5.00
2022-10-28T09:16:13.721Z,5.10
2022-10-28T09:18:59.306Z,5.70
2022-10-28T09:21:33.988Z,5.73
2022-10-28T09:24:07.599Z,5.97
2022-10-28T09:26:47.193Z,6.50
2022-10-28T09:29:41.888Z,6.33
2022-10-28T09:32:20.057Z,6.93
2022-10-28T09:35:16.126Z,6.63
2022-10-28T09:37:53.066Z,6.60
2022-10-28T09:40:22.830Z,5.33
2022-10-28T09:43:05.797Z,6.93
2022-10-28T09:45:34.016Z,5.10
2022-10-28T09:48:05.648Z,6.23
2022-10-28T09:50:33.242Z,6.23
2022-10-28T09:53:18.010Z,4.80
2022-10-28T09:55:44.858Z,6.10
2022-10-28T09:58:12.976Z,5.20
2022-10-28T10:00:39.947Z,5.30
2022-10-28T10:03:06.591Z,4.63
2022-10-28T10:05:37.339Z,5.00
2022-10-28T10:08:05.626Z,5.63
2022-10-28T10:10:44.812Z,7.43
2022-10-28T10:13:13.164Z,6.03
2022-10-28T10:15:45.959Z,5.17
2022-10-28T10:18:20.416Z,5.70
2022-10-28T10:21:00.552Z,4.63
2022-10-28T10:23:31.618Z,5.47
2022-10-28T10:26:02.007Z,4.90
2022-10-28T10:28:29.420Z,4.50
2022-10-28T10:31:01.896Z,4.50
2022-10-28T10:33:39.530Z,5.00
2022-10-28T10:36:17.640Z,4.17
2022-10-28T10:38:55.392Z,4.47
2022-10-28T10:41:38.487Z,4.20
2022-10-28T10:44:30.334Z,3.53
2022-10-28T10:47:04.968Z,5.23
2022-10-28T10:49:34.250Z,4.77
2022-10-28T10:52:09.938Z,4.03
2022-10-28T10:54:37.722Z,4.17
2022-10-28T10:57:09.344Z,3.60
2022-10-28T10:59:37.920Z,4.70
2022-10-28T11:02:05.101Z,3.40
2022-10-28T11:04:36.888Z,2.97
2022-10-28T11:07:03.650Z,4.50
2022-10-28T11:09:36.299Z,4.03
2022-10-28T11:12:20.740Z,3.23
2022-10-28T11:14:56.113Z,4.20
2022-10-28T11:17:26.427Z,3.43
2022-10-28T11:19:56.282Z,3.87
2022-10-28T11:22:38.988Z,4.10
2022-10-28T11:25:27.937Z,3.17
2022-10-28T11:28:28.647Z,3.97
2022-10-28T11:31:10.412Z,3.33
2022-10-28T11:34:07.861Z,4.40
2022-10-28T11:36:52.780Z,3.33
2022-10-28T11:39:36.880Z,3.47
2022-10-28T11:42:20.691Z,3.17
2022-10-28T11:44:51.265Z,3.23
2022-10-28T11:47:32.826Z,4.10
2022-10-28T11:50:23.219Z,3.10
2022-10-28T11:52:56.001Z,3.47
2022-10-28T11:55:40.118Z,3.70
2022-10-28T11:58:32.796Z,3.47
2022-10-28T12:01:38.381Z,3.80
2022-10-28T12:04:30.968Z,2.40
2022-10-28T12:07:20.234Z,2.60
2022-10-28T12:09:54.021Z,2.60
2022-10-28T12:12:33.438Z,3.10
2022-10-28T12:15:39.232Z,2.80
2022-10-28T12:18:29.448Z,2.50
2022-10-28T12:20:59.315Z,3.60
2022-10-28T12:23:27.201Z,3.67
2022-10-28T12:25:57.435Z,2.63
2022-10-28T12:28:42.598Z,3.10
2022-10-28T12:31:25.321Z,3.23
2022-10-28T12:34:05.116Z,3.00
2022-10-28T12:36:38.908Z,4.20
2022-10-28T12:39:15.836Z,3.77
2022-10-28T12:41:52.861Z,3.67
2022-10-28T12:44:21.209Z,2.97
2022-10-28T12:47:03.138Z,3.10
2022-10-28T12:50:08.439Z,2.90
2022-10-28T12:53:12.732Z,2.53
2022-10-28T12:55:59.722Z,2.80
2022-10-28T13:01:36.486Z,3.17
2022-10-28T13:04:03.888Z,2.90
2022-10-28T13:06:42.542Z,4.73
2022-10-28T13:09:13.635Z,3.00
2022-10-28T13:12:08.377Z,4.77
2022-10-28T13:14:59.089Z,5.00
2022-10-28T13:17:39.129Z,3.77
2022-10-28T13:20:26.879Z,3.20
2022-10-28T13:23:16.648Z,2.50
2022-10-28T13:26:10.488Z,2.47
2022-10-28T13:28:46.968Z,2.60
2022-10-28T13:31:15.544Z,2.47
2022-10-28T13:33:59.483Z,3.00
2022-10-28T13:36:28.913Z,3.37
2022-10-28T13:38:59.905Z,2.20
2022-10-28T13:41:37.602Z,3.40
2022-10-28T13:44:10.370Z,2.87
2022-10-28T13:46:58.962Z,3.60
2022-10-28T13:49:26.271Z,2.90
2022-10-28T13:52:02.616Z,2.50
2022-10-28T13:54:56.351Z,3.20
2022-10-28T13:57:27.059Z,2.60
2022-10-28T14:00:00.584Z,2.47
2022-10-28T14:02:41.096Z,2.57
2022-10-28T14:05:13.071Z,1.77
2022-10-28T14:07:50.845Z,3.37
2022-10-28T14:10:32.012Z,2.73
2022-10-28T14:13:04.709Z,3.10
2022-10-28T14:15:36.250Z,2.97
2022-10-28T14:18:15.656Z,2.73
2022-10-28T14:20:49.671Z,1.90
2022-10-28T14:23:22.477Z,2.57
2022-10-28T14:25:52.130Z,1.63
2022-10-28T14:28:30.791Z,2.03
2022-10-28T14:31:12.449Z,3.23
2022-10-28T14:33:41.592Z,2.10
2022-10-28T14:36:20.272Z,2.37
2022-10-28T14:38:58.470Z,2.10
2022-10-28T14:41:54.236Z,1.83
2022-10-28T14:44:39.770Z,1.83
2022-10-28T14:47:27.458Z,3.17
2022-10-28T14:50:07.449Z,3.40
2022-10-28T14:52:36.594Z,3.43
2022-10-28T14:55:06.152Z,4.50
2022-10-28T14:57:34.432Z,4.03
2022-10-28T15:00:07.662Z,3.43
2022-10-28T15:02:35.983Z,3.13
2022-10-28T15:05:16.405Z,3.23
2022-10-28T15:07:43.762Z,3.90
2022-10-28T15:10:15.970Z,3.07
2022-10-28T15:12:44.895Z,2.90
2022-10-28T15:15:19.282Z,2.20
2022-10-28T15:17:46.003Z,2.33
2022-10-28T15:20:23.980Z,3.30
2022-10-28T15:22:53.696Z,1.93
2022-10-28T15:25:22.142Z,1.97
2022-10-28T15:27:52.294Z,2.67
2022-10-28T15:30:26.134Z,2.67
2022-10-28T15:32:53.959Z,2.37
2022-10-28T15:35:38.202Z,2.57
2022-10-28T15:38:26.364Z,2.07
2022-10-28T15:40:53.139Z,2.50
2022-10-28T15:43:30.267Z,3.23
2022-10-28T15:46:10.898Z,2.10
2022-10-28T15:48:37.937Z,1.90
2022-10-28T15:51:18.083Z,2.33
2022-10-28T15:53:46.113Z,4.83
2022-10-28T15:56:21.890Z,3.53
2022-10-28T15:59:07.172Z,3.07
2022-10-28T16:01:39.595Z,3.37
2022-10-28T16:04:23.651Z,2.77
2022-10-28T16:06:52.529Z,1.90
2022-10-28T16:09:19.979Z,3.20
2022-10-28T16:11:51.885Z,4.00
2022-10-28T16:14:27.269Z,2.60
2022-10-28T16:16:54.191Z,3.93
2022-10-28T16:19:37.199Z,4.90
2022-10-28T16:22:04.704Z,4.77
2022-10-28T16:24:31.426Z,4.90
2022-10-28T16:27:18.202Z,3.50
2022-10-28T16:29:45.150Z,3.20
2022-10-28T16:32:12.907Z,2.70
2022-10-28T16:34:39.907Z,2.73
2022-10-28T16:37:24.651Z,3.07
2022-10-28T16:39:51.647Z,1.80
2022-10-28T16:42:18.825Z,2.50
2022-10-28T16:44:45.926Z,2.13
2022-10-28T16:47:14.285Z,2.17
2022-10-28T16:49:41.364Z,2.47
2022-10-28T16:52:22.559Z,2.20
2022-10-28T16:54:50.566Z,1.90
2022-10-28T16:57:19.499Z,2.17
2022-10-28T16:59:46.857Z,2.80
2022-10-28T17:02:33.359Z,3.80
2022-10-28T17:05:01.019Z,4.87
2022-10-28T17:07:28.450Z,4.93
2022-10-28T17:09:57.047Z,5.93
2022-10-28T17:12:27.859Z,4.83
2022-10-28T17:14:54.816Z,5.60
2022-10-28T17:17:21.655Z,4.77
2022-10-28T17:19:48.390Z,5.73
2022-10-28T17:22:15.128Z,3.00
2022-10-28T17:24:41.916Z,2.53
2022-10-28T17:27:08.901Z,2.20
2022-10-28T17:29:35.775Z,2.57
2022-10-28T17:32:02.679Z,3.07
2022-10-28T17:34:29.678Z,2.47
2022-10-28T17:36:56.678Z,1.83
2022-10-28T17:39:26.179Z,2.03
2022-10-28T17:41:53.565Z,2.50
2022-10-28T17:44:20.325Z,3.40
2022-10-28T17:46:50.026Z,4.30
2022-10-28T17:49:16.834Z,3.57
2022-10-28T17:51:43.917Z,4.20
2022-10-28T17:54:10.910Z,6.80
2022-10-28T17:56:39.383Z,7.40
2022-10-28T17:59:06.334Z,7.03
2022-10-28T18:01:34.748Z,4.50
2022-10-28T18:04:03.747Z,2.60
2022-10-28T18:06:30.621Z,4.10
2022-10-28T18:08:58.378Z,2.60
2022-10-28T18:11:25.484Z,2.70
2022-10-28T18:13:53.705Z,2.70
2022-10-28T18:16:27.614Z,4.17
2022-10-28T18:18:55.641Z,6.47
2022-10-28T18:21:24.477Z,5.63
2022-10-28T18:23:57.247Z,6.43
2022-10-28T18:26:23.950Z,4.60
2022-10-28T18:28:50.938Z,5.10
2022-10-28T18:31:19.480Z,6.60
2022-10-28T18:33:47.174Z,4.63
2022-10-28T18:36:15.721Z,3.60
2022-10-28T18:38:42.706Z,3.90
2022-10-28T18:41:11.377Z,3.60
2022-10-28T18:43:38.472Z,3.47
2022-10-28T18:46:05.320Z,3.57
2022-10-28T18:48:32.158Z,2.63
2022-10-28T18:51:01.297Z,2.97
2022-10-28T18:53:28.294Z,3.70
2022-10-28T18:56:00.099Z,15.53
2022-10-28T18:58:27.565Z,15.80
2022-10-28T19:00:54.304Z,7.43
2022-10-28T19:03:22.732Z,4.30
2022-10-28T19:05:50.420Z,4.87
2022-10-28T19:08:17.191Z,3.50
2022-10-28T19:10:44.066Z,3.20
2022-10-28T19:13:10.788Z,3.53
2022-10-28T19:15:42.149Z,6.77
2022-10-28T19:18:08.908Z,10.70
2022-10-28T19:20:35.630Z,18.13
2022-10-28T19:23:02.492Z,24.13
2022-10-28T19:25:29.228Z,10.77
2022-10-28T19:27:57.258Z,9.90
2022-10-28T19:30:24.027Z,6.00
2022-10-28T19:32:50.608Z,4.60
2022-10-28T19:35:17.504Z,4.23
2022-10-28T19:37:44.151Z,2.90
2022-10-28T19:40:11.140Z,4.43
2022-10-28T19:42:38.995Z,2.37
2022-10-28T19:45:06.749Z,3.57
2022-10-28T19:47:33.396Z,3.00
2022-10-28T19:50:00.146Z,2.50
2022-10-28T19:52:26.930Z,3.87
2022-10-28T19:54:53.592Z,2.40
2022-10-28T19:57:20.238Z,2.20
2022-10-28T19:59:46.910Z,9.77
2022-10-28T20:02:13.741Z,12.00
2022-10-28T20:04:40.479Z,7.00
2022-10-28T20:07:07.297Z,5.60
2022-10-28T20:09:33.903Z,5.37
2022-10-28T20:12:01.929Z,4.87
2022-10-28T20:14:29.227Z,5.10
2022-10-28T20:16:55.988Z,4.63
2022-10-28T20:19:22.643Z,4.93
2022-10-28T20:21:50.041Z,3.97
2022-10-28T20:24:17.456Z,3.63
2022-10-28T20:26:44.104Z,3.50
2022-10-28T20:29:10.901Z,4.10
2022-10-28T20:31:39.061Z,4.37
2022-10-28T20:34:05.858Z,3.43
2022-10-28T20:36:35.154Z,3.50
2022-10-28T20:39:02.594Z,3.97
2022-10-28T20:41:31.221Z,2.63
2022-10-28T20:43:58.294Z,3.27
2022-10-28T20:46:26.144Z,3.40
2022-10-28T20:48:56.631Z,3.20
2022-10-28T20:51:25.683Z,3.50
2022-10-28T20:53:52.401Z,3.40
2022-10-28T20:56:26.275Z,4.10
2022-10-28T20:58:53.824Z,3.90
2022-10-28T21:01:25.689Z,2.83
2022-10-28T21:03:57.480Z,3.43
2022-10-28T21:06:24.300Z,3.67
2022-10-28T21:08:51.257Z,2.73
2022-10-28T21:11:18.452Z,3.27
2022-10-28T21:13:51.965Z,3.50
2022-10-28T21:16:19.208Z,2.43
2022-10-28T21:18:45.869Z,1.63
2022-10-28T21:21:12.572Z,2.60
2022-10-28T21:23:39.263Z,2.80
2022-10-28T21:26:07.451Z,2.37
2022-10-28T21:28:34.880Z,2.27
2022-10-28T21:31:06.901Z,1.90
2022-10-28T21:33:35.251Z,2.57
2022-10-28T21:36:04.379Z,1.97
2022-10-28T21:38:31.070Z,2.10
2022-10-28T21:41:27.168Z,2.00
2022-10-28T21:43:54.338Z,2.37
2022-10-28T21:46:22.444Z,1.90
2022-10-28T21:48:49.298Z,2.00
2022-10-28T21:51:17.005Z,2.60
2022-10-28T21:53:44.631Z,2.53
2022-10-28T21:56:19.584Z,2.50
2022-10-28T21:58:48.185Z,1.57
2022-10-28T22:01:20.735Z,2.10
2022-10-28T22:03:47.471Z,2.20
2022-10-28T22:06:14.446Z,1.63
2022-10-28T22:08:41.315Z,2.63
2022-10-28T22:11:18.832Z,1.77
2022-10-28T22:13:45.995Z,2.00
2022-10-28T22:16:14.707Z,1.80
2022-10-28T22:18:41.624Z,2.00
2022-10-28T22:21:22.943Z,1.93
2022-10-28T22:23:50.278Z,2.00
2022-10-28T22:26:19.324Z,1.60
2022-10-28T22:28:46.139Z,1.77
2022-10-28T22:31:15.639Z,1.60
2022-10-28T22:33:42.640Z,2.53
2022-10-28T22:36:14.631Z,1.77
2022-10-28T22:38:41.622Z,1.90
2022-10-28T22:41:12.106Z,1.80
2022-10-28T22:43:39.651Z,1.83
2022-10-28T22:46:06.682Z,2.60
2022-10-28T22:48:33.493Z,2.47
2022-10-28T22:51:00.231Z,2.20
2022-10-28T22:53:27.038Z,1.97
2022-10-28T22:55:54.094Z,2.13
2022-10-28T22:58:21.413Z,2.10
2022-10-28T23:00:48.578Z,1.57
2022-10-28T23:03:15.570Z,1.83
2022-10-28T23:05:42.137Z,1.60
2022-10-28T23:08:14.781Z,1.70
2022-10-28T23:10:41.598Z,2.20
2022-10-28T23:13:11.885Z,1.60
2022-10-28T23:15:38.586Z,2.30
2022-10-28T23:18:05.273Z,3.67
2022-10-28T23:20:31.952Z,2.40
2022-10-28T23:22:58.590Z,1.77
2022-10-28T23:25:25.334Z,2.17
2022-10-28T23:27:52.348Z,1.77
2022-10-28T23:30:19.316Z,1.60
2022-10-28T23:32:45.905Z,1.50
2022-10-28T23:35:12.520Z,1.67
2022-10-28T23:37:39.162Z,1.80
2022-10-28T23:40:06.428Z,1.87
2022-10-28T23:42:33.144Z,1.70
2022-10-28T23:44:59.905Z,2.00
2022-10-28T23:47:26.535Z,1.97
2022-10-28T23:49:53.214Z,1.60
2022-10-28T23:52:20.145Z,1.83
2022-10-28T23:54:46.816Z,2.00
2022-10-28T23:57:13.556Z,2.13
2022-10-28T23:59:40.257Z,2.07
